^^
Datos históricos de la estación: Murcia-Puente Tocinos
Diario Informe para Enero 3, 2019 Unidades:  Métrico    Ingés   Ambas
Diario Semanal Mensual Anual
  Máxima: Mínima: Promedio:
Temperatura: 23.2 °C 11.8 °C 17.5 °C
Punto de rocio: 12.6 °C 6.6 °C 10 °C
Humedad: 88% 35.2% 64%
Velocidad viento: 23.3km/h 0km/h 8.3km/h
Racha viento: 40.2km/h - -
Viento- - Sur
Presión: 1012.1 hPa 997.8 hPa -
Precipitación: 0.0 mm    
 
 
Tabla de datos para Enero 3, 2019
Hora Temperatura Punto de rocio Presión Viento Velocidad viento Racha viento Humedad Intensidad lluvia(por hora) Nubes
00:04 16.1 °C 12.3 °C 1012.1 hPa NE 7.6 km/h 14.8 km/h 78% 0.0 mm
00:09 16 °C 12.3 °C 1012.0 hPa NE 8 km/h 14.5 km/h 78.5% 0.0 mm
00:14 15.9 °C 12.3 °C 1012.0 hPa ENE 8.7 km/h 11.3 km/h 79% 0.0 mm
00:19 15.9 °C 12.4 °C 1012.0 hPa NE 7.7 km/h 11.3 km/h 79.8% 0.0 mm
00:24 15.8 °C 12.4 °C 1012.0 hPa NE 6.5 km/h 11.3 km/h 80% 0.0 mm
00:29 15.7 °C 12.4 °C 1012.0 hPa NE 6.5 km/h 11.3 km/h 80.5% 0.0 mm
00:34 15.6 °C 12.3 °C 1012.0 hPa NE 6.5 km/h 11.3 km/h 81% 0.0 mm
00:39 15.4 °C 12.3 °C 1011.9 hPa NE 6.5 km/h 11.3 km/h 82% 0.0 mm
00:44 15.3 °C 12.3 °C 1011.9 hPa NNE 6.5 km/h 9.7 km/h 82% 0.0 mm
00:49 15.3 °C 12.3 °C 1011.9 hPa North 5.8 km/h 9.5 km/h 82.4% 0.0 mm
00:54 15.2 °C 12.3 °C 1011.8 hPa NO 4.7 km/h 9.7 km/h 83% 0.0 mm
00:59 15.1 °C 12.3 °C 1011.8 hPa NO 4.8 km/h 9.7 km/h 83.5% 0.0 mm
01:04 15 °C 12.3 °C 1011.8 hPa NNO 5 km/h 10 km/h 84% 0.0 mm
01:09 14.9 °C 12.3 °C 1011.8 hPa NNO 4.5 km/h 11.9 km/h 84.3% 0.0 mm
01:14 14.8 °C 12.3 °C 1011.8 hPa NNO 3.9 km/h 11.3 km/h 85% 0.0 mm
01:19 14.7 °C 12.4 °C 1011.8 hPa ONO 4.3 km/h 11.3 km/h 85.9% 0.0 mm
01:24 14.7 °C 12.4 °C 1011.7 hPa Oeste 5 km/h 8 km/h 86.1% 0.0 mm
01:29 14.7 °C 12.5 °C 1011.7 hPa NO 4.2 km/h 8 km/h 87% 0.0 mm
01:34 14.7 °C 12.6 °C 1011.7 hPa NO 2.9 km/h 8 km/h 87% 0.0 mm
01:39 14.7 °C 12.5 °C 1011.7 hPa ONO 3.3 km/h 8 km/h 87% 0.0 mm
01:44 14.6 °C 12.5 °C 1011.7 hPa NO 3.9 km/h 8 km/h 87% 0.0 mm
01:49 14.6 °C 12.4 °C 1011.7 hPa NO 3.2 km/h 6.4 km/h 87% 0.0 mm
01:54 14.6 °C 12.5 °C 1011.5 hPa ENE 2.2 km/h 8.7 km/h 87.4% 0.0 mm
01:59 14.6 °C 12.4 °C 1011.5 hPa ESE 3 km/h 9.7 km/h 87% 0.0 mm
02:04 14.5 °C 12.3 °C 1011.5 hPa SE 3.9 km/h 9.3 km/h 87% 0.0 mm
02:09 14.4 °C 12.2 °C 1011.1 hPa SE 3.6 km/h 9.7 km/h 86.5% 0.0 mm
02:14 14.3 °C 12 °C 1011.1 hPa SE 3.2 km/h 5.6 km/h 86% 0.0 mm
02:19 14.3 °C 12 °C 1011.1 hPa SE 2.8 km/h 4.8 km/h 86% 0.0 mm
02:24 14.2 °C 11.9 °C 1011.1 hPa SE 2.2 km/h   86% 0.0 mm
02:29 14.2 °C 11.9 °C 1011.1 hPa SE 1.3 km/h   86% 0.0 mm
02:34 14.2 °C 12 °C 1011.1 hPa Calm     86.8% 0.0 mm
02:39 14.2 °C 12 °C 1011.0 hPa Calm     87% 0.0 mm
02:44 14.1 °C 12 °C 1011.0 hPa Calm     87% 0.0 mm
02:49 14 °C 11.8 °C 1011.0 hPa ESE 0.9 km/h 8.4 km/h 86.5% 0.0 mm
02:54 13.8 °C 11.5 °C 1010.8 hPa ESE 2.2 km/h 8 km/h 86% 0.0 mm
02:59 13.7 °C 11.4 °C 1010.8 hPa SSE 3.4 km/h 8 km/h 86.2% 0.0 mm
03:04 13.6 °C 11.5 °C 1010.8 hPa Sur 4.6 km/h 8.4 km/h 87% 0.0 mm
03:09 13.6 °C 11.3 °C 1010.8 hPa Sur 4.8 km/h 8 km/h 86.2% 0.0 mm
03:14 13.6 °C 11.4 °C 1010.8 hPa SSO 5 km/h 10.3 km/h 86.5% 0.0 mm
03:19 13.6 °C 11.5 °C 1010.8 hPa SSO 4.5 km/h 9.7 km/h 87% 0.0 mm
03:24 13.6 °C 11.4 °C 1010.5 hPa OSO 3.9 km/h 7.6 km/h 86.5% 0.0 mm
03:29 13.6 °C 11.5 °C 1010.5 hPa OSO 3.9 km/h 8 km/h 87% 0.0 mm
03:34 13.5 °C 11.4 °C 1010.5 hPa OSO 3.9 km/h 7.6 km/h 87% 0.0 mm
03:39 13.5 °C 11.5 °C 1010.3 hPa Oeste 3.9 km/h 8 km/h 87.9% 0.0 mm
03:44 13.5 °C 11.6 °C 1010.3 hPa OSO 3.9 km/h 9.5 km/h 88% 0.0 mm
03:49 13.6 °C 11.5 °C 1010.3 hPa Sur 4.2 km/h 9.7 km/h 87.5% 0.0 mm
03:54 13.5 °C 11.4 °C 1010.2 hPa SSO 4.7 km/h 11.9 km/h 87% 0.0 mm
03:59 13.4 °C 11.3 °C 1010.2 hPa SSO 5.7 km/h 11.3 km/h 87% 0.0 mm
04:04 13.4 °C 11.3 °C 1010.2 hPa SSO 6.9 km/h 11.3 km/h 87% 0.0 mm
04:09 13.5 °C 11.4 °C 1010.0 hPa SSO 6.9 km/h 11.1 km/h 87% 0.0 mm
04:14 13.5 °C 11.4 °C 1010.0 hPa Sur 6.9 km/h 11.3 km/h 86.9% 0.0 mm
04:19 13.5 °C 11.2 °C 1010.0 hPa Sur 6.9 km/h 11.9 km/h 86% 0.0 mm
04:24 13.5 °C 11.2 °C 1009.8 hPa SSO 6.9 km/h 11.3 km/h 86% 0.0 mm
04:29 13.4 °C 11.2 °C 1009.8 hPa OSO 6.9 km/h 11.3 km/h 86.4% 0.0 mm
04:34 13.5 °C 11.4 °C 1009.8 hPa Oeste 6.9 km/h 11.3 km/h 87% 0.0 mm
04:39 13.4 °C 11.3 °C 1009.6 hPa Oeste 6 km/h 11.3 km/h 87% 0.0 mm
04:44 13.4 °C 11.3 °C 1009.6 hPa Oeste 4.7 km/h 9.3 km/h 87% 0.0 mm
04:49 13.3 °C 11.2 °C 1009.6 hPa OSO 4.3 km/h 9.7 km/h 87% 0.0 mm
04:54 13.2 °C 11.1 °C 1009.4 hPa OSO 3.9 km/h 8 km/h 87% 0.0 mm
04:59 13.2 °C 11.1 °C 1009.4 hPa SSO 3.9 km/h 8.7 km/h 87% 0.0 mm
05:04 13.2 °C 11.1 °C 1009.4 hPa Sur 3.9 km/h 9.7 km/h 87% 0.0 mm
05:09 13.1 °C 10.9 °C 1009.2 hPa Sur 4.3 km/h 9.7 km/h 86.2% 0.0 mm
05:14 13.1 °C 10.9 °C 1009.2 hPa SO 5 km/h 8.4 km/h 86.7% 0.0 mm
05:19 13 °C 10.8 °C 1009.2 hPa SO 4.9 km/h 10 km/h 86.8% 0.0 mm
05:24 12.9 °C 10.8 °C 1009.0 hPa OSO 4.7 km/h 9.7 km/h 87% 0.0 mm
05:29 12.9 °C 10.8 °C 1009.0 hPa SO 5.1 km/h 9.7 km/h 87% 0.0 mm
05:34 12.9 °C 10.8 °C 1009.0 hPa SO 5.8 km/h 9.3 km/h 87% 0.0 mm
05:39 12.9 °C 10.8 °C 1008.9 hPa SO 5.3 km/h 9.7 km/h 87% 0.0 mm
05:44 13 °C 10.9 °C 1008.9 hPa SSO 4.7 km/h 9.7 km/h 87% 0.0 mm
05:49 13 °C 10.8 °C 1008.9 hPa Sur 4.8 km/h 9.7 km/h 86.3% 0.0 mm
05:54 12.9 °C 10.6 °C 1008.8 hPa SSE 5 km/h 11.9 km/h 86% 0.0 mm
05:59 12.9 °C 10.6 °C 1008.8 hPa SSE 6.2 km/h 11.3 km/h 86% 0.0 mm
06:04 12.8 °C 10.5 °C 1008.8 hPa SSE 7.6 km/h 12.2 km/h 86% 0.0 mm
06:09 12.6 °C 10.4 °C 1008.7 hPa Sur 7.3 km/h 13 km/h 86.4% 0.0 mm
06:14 12.4 °C 10.3 °C 1008.7 hPa Sur 6.9 km/h 11.3 km/h 87% 0.0 mm
06:19 12.3 °C 10.2 °C 1008.7 hPa SSE 6.5 km/h 9.7 km/h 87% 0.0 mm
06:24 12.3 °C 10.2 °C 1008.6 hPa Sur 5.8 km/h 9.7 km/h 87% 0.0 mm
06:29 12.2 °C 10.3 °C 1008.6 hPa Sur 5.8 km/h 9.7 km/h 88% 0.0 mm
06:34 12.2 °C 10.3 °C 1008.6 hPa Sur 5.8 km/h 8.4 km/h 88% 0.0 mm
06:39 12.1 °C 10.2 °C 1008.6 hPa Sur 5.5 km/h 8.4 km/h 88% 0.0 mm
06:44 12.1 °C 10.2 °C 1008.6 hPa Sur 5 km/h 8.4 km/h 88% 0.0 mm
06:49 12.1 °C 10.2 °C 1008.6 hPa SSO 4.3 km/h 8 km/h 88% 0.0 mm
06:54 12.1 °C 10.2 °C 1008.6 hPa SO 3.2 km/h 7.4 km/h 88% 0.0 mm
06:59 12.2 °C 10.3 °C 1008.6 hPa SO 3.1 km/h 8 km/h 88% 0.0 mm
07:04 12.2 °C 10.2 °C 1008.6 hPa SO 2.9 km/h 8 km/h 87.7% 0.0 mm
07:09 12.2 °C 10.1 °C 1008.5 hPa SO 3 km/h 8 km/h 87% 0.0 mm
07:14 12.2 °C 10.1 °C 1008.5 hPa SO 3.2 km/h 5 km/h 87% 0.0 mm
07:19 12.2 °C 10 °C 1008.5 hPa SSO 3.1 km/h 8.4 km/h 86.2% 0.0 mm
07:24 12.1 °C 9.9 °C 1008.4 hPa SSO 2.9 km/h 11.1 km/h 86% 0.0 mm
07:29 12 °C 9.7 °C 1008.4 hPa Sur 4.3 km/h 11.3 km/h 86% 0.0 mm
07:34 11.9 °C 9.6 °C 1008.4 hPa Sur 6.5 km/h 11.3 km/h 86% 0.0 mm
07:39 11.9 °C 9.6 °C 1008.4 hPa Sur 5.7 km/h 9.7 km/h 86% 0.0 mm
07:44 11.9 °C 9.6 °C 1008.4 hPa Sur 4.7 km/h 8 km/h 86% 0.0 mm
07:49 11.9 °C 9.6 °C 1008.4 hPa Sur 4.7 km/h 8.4 km/h 86% 0.0 mm
07:54 11.9 °C 9.6 °C 1008.4 hPa Sur 4.7 km/h 8.4 km/h 86% 0.0 mm
07:59 11.8 °C 9.7 °C 1008.4 hPa Sur 5.2 km/h 9.5 km/h 86.8% 0.0 mm
08:04 11.8 °C 9.7 °C 1008.4 hPa SSO 5.8 km/h 9.7 km/h 87% 0.0 mm
08:09 11.8 °C 9.7 °C 1008.4 hPa SSO 6 km/h 11.1 km/h 87% 0.0 mm
08:14 11.8 °C 9.7 °C 1008.4 hPa SSO 6.5 km/h 11.3 km/h 87% 0.0 mm
08:19 11.9 °C 9.8 °C 1008.4 hPa SO 5.9 km/h 11.3 km/h 87% 0.0 mm
08:24 11.9 °C 9.7 °C 1008.3 hPa SO 5 km/h 9.7 km/h 86.6% 0.0 mm
08:29 12.1 °C 9.8 °C 1008.3 hPa SO 4.5 km/h 8 km/h 86% 0.0 mm
08:34 12.2 °C 9.8 °C 1008.3 hPa Sur 3.9 km/h 9.3 km/h 85.2% 0.0 mm
08:39 12.2 °C 9.8 °C 1008.2 hPa Sur 4.6 km/h 9.7 km/h 85% 0.0 mm
08:44 12.3 °C 9.7 °C 1008.2 hPa Sur 5.8 km/h 9.7 km/h 84.6% 0.0 mm
08:49 12.3 °C 9.7 °C 1008.2 hPa SSE 6 km/h 11.1 km/h 84% 0.0 mm
08:54 12.4 °C 9.7 °C 1008.2 hPa SSE 6.5 km/h 11.3 km/h 84% 0.0 mm
08:59 12.4 °C 9.8 °C 1008.2 hPa SSE 7 km/h 11.3 km/h 84% 0.0 mm
09:04 12.3 °C 9.6 °C 1008.2 hPa SSE 7.6 km/h 11.3 km/h 83.4% 0.0 mm
09:09 12.2 °C 9.6 °C 1008.2 hPa SSE 7.9 km/h 11.3 km/h 84% 0.0 mm
09:14 12.3 °C 9.7 °C 1008.2 hPa SSE 8.4 km/h 11.1 km/h 84% 0.0 mm
09:19 12.6 °C 9.8 °C 1008.2 hPa Sur 7.8 km/h 11.9 km/h 83.2% 0.0 mm
09:24 12.7 °C 9.7 °C 1008.0 hPa SSO 6.9 km/h 11.9 km/h 81.9% 0.0 mm
09:29 12.8 °C 9.6 °C 1008.0 hPa SSO 7.2 km/h 11.3 km/h 80.8% 0.0 mm
09:34 12.8 °C 9.4 °C 1008.0 hPa SSO 7.6 km/h 11.9 km/h 79.8% 0.0 mm
09:39 12.9 °C 9.5 °C 1007.9 hPa SSO 7.6 km/h 11.3 km/h 79.8% 0.0 mm
09:44 13.2 °C 9.5 °C 1007.9 hPa SSO 7.6 km/h 13 km/h 78.6% 0.0 mm
09:49 13.3 °C 9.6 °C 1007.9 hPa SO 7.9 km/h 12.9 km/h 78% 0.0 mm
09:54 13.5 °C 9.8 °C 1007.7 hPa SSO 8.4 km/h 11.3 km/h 78% 0.0 mm
09:59 13.9 °C 9.7 °C 1007.7 hPa OSO 6.8 km/h 9.7 km/h 76% 0.0 mm
10:04 14.2 °C 9.7 °C 1007.7 hPa OSO 5 km/h 10 km/h 74.4% 0.0 mm
10:09 14.4 °C 9.9 °C 1007.5 hPa SO 4.9 km/h 9.7 km/h 74.1% 0.0 mm
10:14 14.7 °C 9.7 °C 1007.5 hPa SO 4.7 km/h 9.5 km/h 72% 0.0 mm
10:19 14.8 °C 9.6 °C 1007.5 hPa SO 4.7 km/h 10 km/h 70.8% 0.0 mm
10:24 15 °C 9.5 °C 1007.4 hPa SO 4.7 km/h 10 km/h 69.7% 0.0 mm
10:29 15.2 °C 9.6 °C 1007.4 hPa SSO 4.8 km/h 9.7 km/h 69.2% 0.0 mm
10:34 15.3 °C 9.6 °C 1007.4 hPa SSO 5 km/h 9.7 km/h 68.4% 0.0 mm
10:39 15.6 °C 9.5 °C 1007.2 hPa OSO 4.9 km/h 10.3 km/h 67% 0.0 mm
10:44 15.8 °C 9 °C 1007.2 hPa SO 4.7 km/h 11.3 km/h 64.2% 0.0 mm
10:49 15.9 °C 8.8 °C 1007.2 hPa Oeste 4.8 km/h 11.3 km/h 62.6% 0.0 mm
10:54 16.2 °C 8.7 °C 1007.2 hPa Oeste 5 km/h 9.7 km/h 61.4% 0.0 mm
10:59 16.3 °C 8.8 °C 1007.2 hPa ONO 4.8 km/h 8.7 km/h 61% 0.0 mm
11:04 16.6 °C 9 °C 1007.2 hPa NO 4.6 km/h 9.7 km/h 61% 0.0 mm
11:09 16.7 °C 9 °C 1006.9 hPa ONO 4.7 km/h 11.9 km/h 60.3% 0.0 mm
11:14 16.8 °C 8.9 °C 1006.9 hPa OSO 4.7 km/h 12.2 km/h 59.4% 0.0 mm
11:19 16.9 °C 8.8 °C 1006.9 hPa SO 5.5 km/h 13 km/h 59% 0.0 mm
11:24 17.1 °C 8.9 °C 1006.8 hPa SO 6.9 km/h 11.3 km/h 58.6% 0.0 mm
11:29 17.3 °C 8.7 °C 1006.8 hPa SO 6.2 km/h 9.7 km/h 56.7% 0.0 mm
11:34 17.7 °C 8.7 °C 1006.8 hPa SSO 5 km/h 11.9 km/h 55.5% 0.0 mm
11:39 18.1 °C 8.6 °C 1006.6 hPa SSO 4.9 km/h 11.9 km/h 54% 0.0 mm
11:44 18.3 °C 8.7 °C 1006.6 hPa Sur 4.7 km/h 11.3 km/h 53.5% 0.0 mm
11:49 18.5 °C 8.6 °C 1006.6 hPa Sur 4.7 km/h 11.3 km/h 52.3% 0.0 mm
11:54 18.8 °C 8.5 °C 1006.2 hPa SO 4.7 km/h 11.9 km/h 51.2% 0.0 mm
11:59 18.9 °C 8.5 °C 1006.2 hPa SSO 5.5 km/h 11.9 km/h 50.9% 0.0 mm
12:04 19.1 °C 8.5 °C 1006.2 hPa Oeste 6.5 km/h 11.3 km/h 50.3% 0.0 mm
12:09 19.3 °C 8.4 °C 1006.0 hPa SO 5.9 km/h 11.1 km/h 49.5% 0.0 mm
12:14 19.3 °C 8.3 °C 1006.0 hPa OSO 5 km/h 11.3 km/h 48.7% 0.0 mm
12:19 19.5 °C 8.4 °C 1006.0 hPa OSO 4.9 km/h 9.7 km/h 48.9% 0.0 mm
12:24 19.8 °C 8.4 °C 1005.7 hPa OSO 4.7 km/h 10 km/h 47.9% 0.0 mm
12:29 20 °C 8.4 °C 1005.7 hPa SSO 4.7 km/h 9.7 km/h 47.3% 0.0 mm
12:34 20.3 °C 8.4 °C 1005.7 hPa Sur 4.7 km/h 10.3 km/h 46.3% 0.0 mm
12:39 20.6 °C 8.2 °C 1005.4 hPa OSO 4.7 km/h 13 km/h 44.9% 0.0 mm
12:44 20.7 °C 8 °C 1005.4 hPa NNO 4.7 km/h 12.9 km/h 44.2% 0.0 mm
12:49 20.9 °C 8.1 °C 1005.4 hPa ESE 4.3 km/h 9.5 km/h 43.6% 0.0 mm
12:54 21.2 °C 7.9 °C 1005.0 hPa SE 3.9 km/h 9.7 km/h 42.5% 0.0 mm
12:59 21.3 °C 7.9 °C 1005.0 hPa Este 4.4 km/h 9.5 km/h 42% 0.0 mm
13:04 21.6 °C 7.9 °C 1005.0 hPa SE 5 km/h 9.7 km/h 41.5% 0.0 mm
13:09 21.8 °C 7.4 °C 1004.6 hPa SSO 4.5 km/h 8.4 km/h 39.3% 0.0 mm
13:14 22 °C 7.4 °C 1004.6 hPa Oeste 3.9 km/h 10 km/h 39.1% 0.0 mm
13:19 22.1 °C 7.5 °C 1004.6 hPa SO 4.3 km/h 9.7 km/h 39% 0.0 mm
13:24 22.2 °C 7.4 °C 1004.3 hPa SO 5 km/h 9.7 km/h 38.8% 0.0 mm
13:29 22.4 °C 7.2 °C 1004.3 hPa SSO 4.3 km/h 9.7 km/h 37.4% 0.0 mm
13:34 22.7 °C 6.6 °C 1004.3 hPa NNO 3.2 km/h 11.1 km/h 35.2% 0.0 mm
13:39 22.7 °C 7.1 °C 1003.8 hPa North 4.3 km/h 13.7 km/h 36.5% 0.0 mm
13:44 22.8 °C 7 °C 1003.8 hPa NNE 5.8 km/h 14.5 km/h 36% 0.0 mm
13:49 22.9 °C 7.3 °C 1003.8 hPa NNE 5.5 km/h 13 km/h 36.7% 0.0 mm
13:54 23 °C 7.5 °C 1003.6 hPa Este 5 km/h 13.7 km/h 37% 0.0 mm
13:59 23 °C 7.5 °C 1003.6 hPa Este 6.8 km/h 16.7 km/h 37.1% 0.0 mm
14:04 23 °C 7.6 °C 1003.6 hPa SE 8.7 km/h 16.1 km/h 37.2% 0.0 mm
14:09 23 °C 7.6 °C 1003.3 hPa Este 9 km/h 16.7 km/h 37.1% 0.0 mm
14:14 22.9 °C 7.9 °C 1003.3 hPa Este 9.5 km/h 16.1 km/h 38.1% 0.0 mm
14:19 23.2 °C 8.1 °C 1003.3 hPa ESE 8.5 km/h 14.5 km/h 38.1% 0.0 mm
14:24 23.2 °C 8.7 °C 1002.9 hPa ESE 6.9 km/h 22.2 km/h 39.5% 0.0 mm
14:29 23.1 °C 9.6 °C 1002.9 hPa ESE 9 km/h 33.5 km/h 42.2% 0.0 mm
14:34 22.8 °C 9.9 °C 1002.9 hPa SE 12.2 km/h 33.8 km/h 44.1% 0.0 mm
14:39 22.3 °C 9.8 °C 1002.7 hPa ESE 14.6 km/h 29 km/h 44.9% 0.0 mm
14:44 22.2 °C 9.9 °C 1002.7 hPa Este 18 km/h 29.6 km/h 45.6% 0.0 mm
14:49 22.4 °C 9.6 °C 1002.7 hPa SE 17 km/h 30.6 km/h 44.2% 0.0 mm
14:54 22.7 °C 9.1 °C 1002.4 hPa SE 15.6 km/h 30.6 km/h 42% 0.0 mm
14:59 22.8 °C 8.7 °C 1002.4 hPa SSE 15.2 km/h 25.7 km/h 40.6% 0.0 mm
15:04 22.9 °C 8.1 °C 1002.4 hPa Sur 14.8 km/h 29.6 km/h 38.7% 0.0 mm
15:09 23 °C 8.2 °C 1002.0 hPa SSE 15.8 km/h 29 km/h 38.9% 0.0 mm
15:14 23.1 °C 8.2 °C 1002.0 hPa SSE 17.2 km/h 27.8 km/h 38.4% 0.0 mm
15:19 23.1 °C 8 °C 1002.0 hPa SE 16.8 km/h 27.4 km/h 37.9% 0.0 mm
15:24 23.1 °C 8.2 °C 1001.6 hPa SSE 16.1 km/h 33.3 km/h 38.6% 0.0 mm
15:29 22.8 °C 8.4 °C 1001.6 hPa SSE 17.6 km/h 33.8 km/h 39.6% 0.0 mm
15:34 22.9 °C 8.2 °C 1001.6 hPa SE 19.8 km/h 29.6 km/h 39.1% 0.0 mm
15:39 22.8 °C 8.6 °C 1001.4 hPa SE 19.3 km/h 35.2 km/h 40.2% 0.0 mm
15:44 22.7 °C 8.7 °C 1001.4 hPa SSE 18.4 km/h 35.4 km/h 40.9% 0.0 mm
15:49 22.6 °C 8.9 °C 1001.4 hPa SE 19.1 km/h 35.4 km/h 41.4% 0.0 mm
15:54 22.5 °C 9.3 °C 1001.2 hPa SE 20.1 km/h 32.2 km/h 43.2% 0.0 mm
15:59 22.6 °C 9.6 °C 1001.2 hPa ESE 19.6 km/h 32.2 km/h 43.7% 0.0 mm
16:04 22.5 °C 9.7 °C 1001.2 hPa SE 19 km/h 32.2 km/h 44.4% 0.0 mm
16:09 22.4 °C 9.4 °C 1000.8 hPa SE 19.3 km/h 31.7 km/h 43.4% 0.0 mm
16:14 22.5 °C 9.1 °C 1000.8 hPa SE 19.8 km/h 38.1 km/h 42.6% 0.0 mm
16:19 22.4 °C 9.3 °C 1000.8 hPa SE 20.6 km/h 38.9 km/h 43.4% 0.0 mm
16:24 22.4 °C 9.5 °C 1000.6 hPa SE 21.7 km/h 38.6 km/h 44% 0.0 mm
16:29 22.7 °C 9.8 °C 1000.6 hPa SSE 19.9 km/h 33.5 km/h 44% 0.0 mm
16:34 22.8 °C 9.4 °C 1000.6 hPa SSE 17.2 km/h 33.8 km/h 42.4% 0.0 mm
16:39 22.8 °C 8.4 °C 1000.2 hPa SSE 18.7 km/h 33.8 km/h 39.6% 0.0 mm
16:44 22.9 °C 7.9 °C 1000.2 hPa Sur 20.9 km/h 39.6 km/h 38.2% 0.0 mm
16:49 22.8 °C 7.1 °C 1000.2 hPa SSE 21.9 km/h 40.2 km/h 36.3% 0.0 mm
16:54 22.9 °C 7.6 °C 999.9 hPa SSE 23.3 km/h 38.6 km/h 37.5% 0.0 mm
16:59 22.9 °C 8.1 °C 999.9 hPa Sur 22.7 km/h 35.9 km/h 38.8% 0.0 mm
17:04 22.8 °C 8.1 °C 999.9 hPa Sur 22.1 km/h 35.4 km/h 38.8% 0.0 mm
17:09 22.9 °C 8.4 °C 999.5 hPa Sur 22.6 km/h 38.1 km/h 39.7% 0.0 mm
17:14 22.8 °C 8.3 °C 999.5 hPa SSE 23.3 km/h 38.9 km/h 39.6% 0.0 mm
17:19 22.7 °C 9 °C 999.5 hPa SSE 22.7 km/h 38.6 km/h 41.6% 0.0 mm
17:24 22.8 °C 8.6 °C 999.3 hPa Sur 21.7 km/h 35.2 km/h 40.1% 0.0 mm
17:29 22.8 °C 8.4 °C 999.3 hPa Sur 21.1 km/h 35.4 km/h 39.7% 0.0 mm
17:34 22.8 °C 8.5 °C 999.3 hPa SSE 20.1 km/h 38.9 km/h 40% 0.0 mm
17:39 22.7 °C 8.4 °C 999.0 hPa SSE 21.4 km/h 38.9 km/h 40% 0.0 mm
17:44 22.8 °C 8.3 °C 999.0 hPa Sur 23.3 km/h 38.6 km/h 39.4% 0.0 mm
17:49 22.8 °C 8.3 °C 999.0 hPa SSE 22.4 km/h 35.2 km/h 39.7% 0.0 mm
17:54 22.7 °C 8.7 °C 998.8 hPa SSE 20.9 km/h 35.4 km/h 40.7% 0.0 mm
17:59 22.8 °C 8.8 °C 998.8 hPa SSE 20 km/h 35.2 km/h 40.9% 0.0 mm
18:04 22.7 °C 8.8 °C 998.8 hPa SSE 19 km/h 35.4 km/h 41% 0.0 mm
18:09 22.7 °C 8.7 °C 998.5 hPa SSE 20.1 km/h 31.7 km/h 40.9% 0.0 mm
18:14 22.7 °C 8.9 °C 998.5 hPa SSE 21.7 km/h 32.2 km/h 41.4% 0.0 mm
18:19 22.7 °C 9.1 °C 998.5 hPa SSE 20.6 km/h 29 km/h 42% 0.0 mm
18:24 22.7 °C 9.1 °C 998.3 hPa SSE 19 km/h 28.2 km/h 42% 0.0 mm
18:29 22.7 °C 9.3 °C 998.3 hPa SE 18.3 km/h 33.3 km/h 42.7% 0.0 mm
18:34 22.6 °C 9.4 °C 998.3 hPa SE 17.2 km/h 33.8 km/h 43% 0.0 mm
18:39 22.4 °C 9.6 °C 998.2 hPa SE 17.5 km/h 29 km/h 44.1% 0.0 mm
18:44 22 °C 10.7 °C 998.2 hPa SE 18 km/h 27.4 km/h 48.5% 0.0 mm
18:49 21.7 °C 11 °C 998.2 hPa SE 16.4 km/h 25.7 km/h 50.7% 0.0 mm
18:54 21.6 °C 11 °C 998.0 hPa ESE 14 km/h 25.9 km/h 50.9% 0.0 mm
18:59 21.5 °C 10.7 °C 998.0 hPa ESE 14.8 km/h 27.8 km/h 50.3% 0.0 mm
19:04 21.4 °C 10.6 °C 998.0 hPa SE 15.6 km/h 27.4 km/h 50.1% 0.0 mm
19:09 21.4 °C 10.6 °C 998.0 hPa SE 15.9 km/h 27.8 km/h 50% 0.0 mm
19:14 21.4 °C 10.4 °C 998.0 hPa SE 16.4 km/h 27.4 km/h 49.6% 0.0 mm
19:19 21.4 °C 10.3 °C 998.0 hPa SE 16.3 km/h 25.7 km/h 49.1% 0.0 mm
19:24 21.4 °C 10.2 °C 997.9 hPa SE 16.1 km/h 25.9 km/h 48.8% 0.0 mm
19:29 21.4 °C 10.2 °C 997.9 hPa SE 15.3 km/h 25.7 km/h 49% 0.0 mm
19:34 21.4 °C 10 °C 997.9 hPa SE 14 km/h 24.1 km/h 48.4% 0.0 mm
19:39 21.5 °C 9.7 °C 997.8 hPa ESE 13.3 km/h 24.1 km/h 47.1% 0.0 mm
19:44 21.5 °C 9.8 °C 997.8 hPa ESE 12.2 km/h 19.3 km/h 47.3% 0.0 mm
19:49 21.4 °C 10.1 °C 997.9 hPa ESE 11.3 km/h 17.7 km/h 48.4% 0.0 mm
19:54 21.2 °C 10.2 °C 997.9 hPa ESE 10 km/h 14.8 km/h 49.5% 0.0 mm
19:59 21.1 °C 10.1 °C 997.9 hPa ESE 9.4 km/h 15.6 km/h 49.3% 0.0 mm
20:04 21 °C 10 °C 998.0 hPa ESE 8.7 km/h 16.1 km/h 49.4% 0.0 mm
20:09 20.9 °C 10.1 °C 998.0 hPa ESE 8.7 km/h 14.5 km/h 49.9% 0.0 mm
20:14 20.8 °C 10 °C 998.0 hPa ESE 8.7 km/h 14.5 km/h 50% 0.0 mm
20:19 20.8 °C 10 °C 998.1 hPa ESE 8 km/h 12.9 km/h 50.1% 0.0 mm
20:24 20.7 °C 10 °C 998.1 hPa NNO 6.9 km/h 8 km/h 50.3% 0.0 mm
20:29 20.6 °C 10.1 °C 998.1 hPa NNO 5.7 km/h 8 km/h 51% 0.0 mm
20:34 20.4 °C 10 °C 998.2 hPa NNO 3.9 km/h 8 km/h 51% 0.0 mm
20:39 20.3 °C 10 °C 998.2 hPa NNO 3.6 km/h 8 km/h 51.6% 0.0 mm
20:44 20.1 °C 10 °C 998.2 hPa Este 3.2 km/h 9.5 km/h 52% 0.0 mm
20:49 20.1 °C 9.9 °C 998.4 hPa SE 4.5 km/h 10 km/h 52% 0.0 mm
20:54 20.1 °C 9.9 °C 998.4 hPa SE 6.5 km/h 10 km/h 52% 0.0 mm
20:59 20 °C 9.8 °C 998.4 hPa SSE 6.5 km/h 11.1 km/h 52% 0.0 mm
21:04 19.9 °C 9.7 °C 998.4 hPa SSE 6.5 km/h 11.3 km/h 52% 0.0 mm
21:09 19.9 °C 9.7 °C 998.4 hPa SSE 6.2 km/h 9.7 km/h 52% 0.0 mm
21:14 19.9 °C 9.9 °C 998.4 hPa SSE 5.8 km/h 8 km/h 52.5% 0.0 mm
21:19 20 °C 10.1 °C 998.5 hPa Sur 5.5 km/h 9.5 km/h 53% 0.0 mm
21:24 20.1 °C 10.2 °C 998.5 hPa SSE 5 km/h 9.7 km/h 53% 0.0 mm
21:29 20.1 °C 10.2 °C 998.5 hPa SSE 4.5 km/h 9.7 km/h 53% 0.0 mm
21:34 20.1 °C 10.4 °C 998.8 hPa SSE 3.9 km/h 7.4 km/h 53.7% 0.0 mm
21:39 19.9 °C 10.5 °C 998.8 hPa SSO 3.6 km/h 14.8 km/h 54.7% 0.0 mm
21:44 19.7 °C 10.8 °C 998.8 hPa SSO 3.2 km/h 16.7 km/h 56.4% 0.0 mm
21:49 19.4 °C 10.9 °C 998.9 hPa SSO 5.4 km/h 16.7 km/h 57.7% 0.0 mm
21:54 19.3 °C 11 °C 998.9 hPa SSO 8.7 km/h 13.7 km/h 58.6% 0.0 mm
21:59 19.2 °C 11 °C 998.9 hPa SSO 9.1 km/h 14.5 km/h 59% 0.0 mm
22:04 19.1 °C 11.2 °C 999.1 hPa SSO 9.5 km/h 14.5 km/h 60% 0.0 mm
22:09 19 °C 11.1 °C 999.1 hPa Sur 8.7 km/h 11.3 km/h 60% 0.0 mm
22:14 18.9 °C 11.2 °C 999.1 hPa SSO 7.6 km/h 13 km/h 61% 0.0 mm
22:19 18.8 °C 11.2 °C 999.4 hPa OSO 7.3 km/h 12.9 km/h 61.6% 0.0 mm
22:24 18.7 °C 11.3 °C 999.4 hPa OSO 6.9 km/h 11.3 km/h 62% 0.0 mm
22:29 18.6 °C 11.2 °C 999.4 hPa SO 6.2 km/h 9.7 km/h 62% 0.0 mm
22:34 18.6 °C 11.3 °C 999.5 hPa SO 5 km/h 11.1 km/h 62.8% 0.0 mm
22:39 18.5 °C 11.3 °C 999.5 hPa SSO 5.6 km/h 11.3 km/h 63% 0.0 mm
22:44 18.4 °C 11.2 °C 999.5 hPa SSO 6.5 km/h 13 km/h 63% 0.0 mm
22:49 18.3 °C 11.3 °C 999.5 hPa SSO 7.2 km/h 13 km/h 63.6% 0.0 mm
22:54 18.3 °C 11.3 °C 999.4 hPa SSO 8.4 km/h 18.5 km/h 63.8% 0.0 mm
22:59 18.2 °C 11 °C 999.4 hPa SSO 9.3 km/h 19.3 km/h 62.8% 0.0 mm
23:04 18.3 °C 10.9 °C 999.4 hPa SSO 10.3 km/h 19.3 km/h 62.2% 0.0 mm
23:09 18.3 °C 11.1 °C 999.4 hPa SO 8 km/h 9.7 km/h 62.8% 0.0 mm
23:14 18.2 °C 11.2 °C 999.4 hPa SO 4.7 km/h 6.4 km/h 63.8% 0.0 mm
23:19 18 °C 11.2 °C 999.6 hPa SO 2.9 km/h 1.6 km/h 64.1% 0.0 mm
23:24 17.8 °C 11.1 °C 999.6 hPa Calm   5.8 km/h 64.7% 0.0 mm
23:29 17.7 °C 10.5 °C 999.6 hPa SSO 1.1 km/h 9.3 km/h 62.6% 0.0 mm
23:34 17.7 °C 10 °C 999.6 hPa Sur 2.9 km/h 9.7 km/h 60.7% 0.0 mm
23:39 17.8 °C 9.6 °C 999.5 hPa SSO 4.3 km/h 10 km/h 58.4% 0.0 mm
23:44 17.9 °C 9 °C 999.5 hPa SSO 6.5 km/h 13 km/h 56% 0.0 mm
23:49 17.9 °C 8.6 °C 999.5 hPa SSO 6.9 km/h 14.8 km/h 54.5% 0.0 mm
23:54 18 °C 8.3 °C 999.5 hPa SSO 7.6 km/h 14.5 km/h 53% 0.0 mm
23:59 18.1 °C 8.2 °C 999.5 hPa Sur 7.9 km/h 13.7 km/h 52.3% 0.0 mm
Murcia-Puente Tocinos, España
Compliments of Weather Underground - 3 mb

La estación de MeteoMurcia.com, publica sus datos en los siguientes proyectos:

Weather Underground PWS IMURCIAP2 Meteoclimatic www.awekas.at

W3Counter
Web Analytics